PWSweather.com
Personal Weather Stations
Station Observations
WD4JKH
Forsyth, GA 31029

Forsyth, GA 31029

Lat: 33.033225, Lon: -83.927995

Elevation: 709

Station Type: Davis Vantage VUE

High Low Average
Temperature 60.2°F15.7°C 42.1°F5.6°C 50.5°F10.3°C
Dew Point 48.5°F9.2°C 38.3°F3.5°C 43.2°F6.2°C
Winds 5.8 mph 9.3 kmh Calm Calm 2.0 mph E3.2 kmh E
Wind Gusts 13.0 mph20.9 kmh -- 5.0 mph8.0 kmh
Humidity 93% 52% 77%
Pressure 30.16 in1021.3 mb 29.96 in1014.6 mb -
Precipitation 0.00 in0.0 mm - -
Hour Temp Dew Point Humidity Winds Wind Gusts Pressure Precip Precip Rate Daily Precip Total
12:02 AM 47.9°F8.8°C 38.3°F3.5°C 69% Calm Calm 1.0 mph1.6 kmh 30.12 in1020.0 mb 0.00 in0.0 mm 0.00 in0.0 mm 0.00 in0.0 mm
12:07 AM 47.9°F8.8°C 38.7°F3.7°C 70% 1.0 mph E1.6 kmh E 1.0 mph1.6 kmh 30.12 in1020.0 mb 0.00 in0.0 mm 0.00 in0.0 mm 0.00 in0.0 mm
12:12 AM 47.8°F8.8°C 38.5°F3.6°C 70% 1.0 mph E1.6 kmh E 1.0 mph1.6 kmh 30.11 in1019.6 mb 0.00 in0.0 mm 0.00 in0.0 mm 0.00 in0.0 mm
12:17 AM 47.5°F8.6°C 38.7°F3.7°C 71% 1.0 mph E1.6 kmh E 1.0 mph1.6 kmh 30.12 in1020.0 mb 0.00 in0.0 mm 0.00 in0.0 mm 0.00 in0.0 mm
12:22 AM 47.3°F8.5°C 38.5°F3.6°C 71% Calm Calm 1.0 mph1.6 kmh 30.11 in1019.6 mb 0.00 in0.0 mm 0.00 in0.0 mm 0.00 in0.0 mm
12:27 AM 47.4°F8.6°C 38.6°F3.7°C 71% 1.4 mph E2.3 kmh E 2.0 mph3.2 kmh 30.11 in1019.6 mb 0.00 in0.0 mm 0.00 in0.0 mm 0.00 in0.0 mm
12:32 AM 47.7°F8.7°C 38.5°F3.6°C 70% 1.1 mph E1.8 kmh E 2.0 mph3.2 kmh 30.11 in1019.6 mb 0.00 in0.0 mm 0.00 in0.0 mm 0.00 in0.0 mm
12:37 AM 47.7°F8.7°C 38.5°F3.6°C 70% Calm Calm 2.0 mph3.2 kmh 30.11 in1019.6 mb 0.00 in0.0 mm 0.00 in0.0 mm 0.00 in0.0 mm
12:42 AM 47.6°F8.7°C 38.4°F3.6°C 70% 1.0 mph E1.6 kmh E 2.0 mph3.2 kmh 30.11 in1019.6 mb 0.00 in0.0 mm 0.00 in0.0 mm 0.00 in0.0 mm
12:47 AM 47.7°F8.7°C 38.5°F3.6°C 70% 1.0 mph E1.6 kmh E 2.0 mph3.2 kmh 30.11 in1019.6 mb 0.00 in0.0 mm 0.00 in0.0 mm 0.00 in0.0 mm
12:52 AM 47.6°F8.7°C 38.4°F3.6°C 70% Calm Calm 1.0 mph1.6 kmh 30.11 in1019.6 mb 0.00 in0.0 mm 0.00 in0.0 mm 0.00 in0.0 mm
12:57 AM 47.6°F8.7°C 38.8°F3.8°C 71% Calm Calm 1.0 mph1.6 kmh 30.11 in1019.6 mb 0.00 in0.0 mm 0.00 in0.0 mm 0.00 in0.0 mm
01:02 AM 47.5°F8.6°C 38.7°F3.7°C 71% Calm Calm 1.0 mph1.6 kmh 30.11 in1019.6 mb 0.00 in0.0 mm 0.00 in0.0 mm 0.00 in0.0 mm
01:07 AM 47.3°F8.5°C 38.5°F3.6°C 71% Calm Calm 1.0 mph1.6 kmh 30.11 in1019.6 mb 0.00 in0.0 mm 0.00 in0.0 mm 0.00 in0.0 mm
01:12 AM 47.3°F8.5°C 38.5°F3.6°C 71% 1.0 mph E1.6 kmh E 1.0 mph1.6 kmh 30.11 in1019.6 mb 0.00 in0.0 mm 0.00 in0.0 mm 0.00 in0.0 mm
01:17 AM 47.1°F8.4°C 38.6°F3.7°C 72% Calm Calm 1.0 mph1.6 kmh 30.11 in1019.6 mb 0.00 in0.0 mm 0.00 in0.0 mm 0.00 in0.0 mm
01:22 AM 46.9°F8.3°C 38.8°F3.8°C 73% Calm Calm 1.0 mph1.6 kmh 30.11 in1019.6 mb 0.00 in0.0 mm 0.00 in0.0 mm 0.00 in0.0 mm
01:27 AM 46.6°F8.1°C 38.5°F3.6°C 73% Calm Calm 1.0 mph1.6 kmh 30.11 in1019.6 mb 0.00 in0.0 mm 0.00 in0.0 mm 0.00 in0.0 mm
01:32 AM 46.3°F7.9°C 38.5°F3.6°C 74% Calm Calm -- 30.11 in1019.6 mb 0.00 in0.0 mm 0.00 in0.0 mm 0.00 in0.0 mm
01:37 AM 46.0°F7.8°C 38.6°F3.7°C 75% Calm Calm -- 30.11 in1019.6 mb 0.00 in0.0 mm 0.00 in0.0 mm 0.00 in0.0 mm
01:42 AM 45.8°F7.7°C 38.7°F3.7°C 76% Calm Calm -- 30.11 in1019.6 mb 0.00 in0.0 mm 0.00 in0.0 mm 0.00 in0.0 mm
01:47 AM 45.8°F7.7°C 38.7°F3.7°C 76% 1.0 mph ENE1.6 kmh ENE 1.0 mph1.6 kmh 30.11 in1019.6 mb 0.00 in0.0 mm 0.00 in0.0 mm 0.00 in0.0 mm
01:51 AM 45.7°F7.6°C 38.6°F3.7°C 76% Calm Calm 1.0 mph1.6 kmh 30.12 in1020.0 mb 0.00 in0.0 mm 0.00 in0.0 mm 0.00 in0.0 mm
01:56 AM 45.5°F7.5°C 38.4°F3.6°C 76% Calm Calm 1.0 mph1.6 kmh 30.11 in1019.6 mb 0.00 in0.0 mm 0.00 in0.0 mm 0.00 in0.0 mm
02:01 AM 45.0°F7.2°C 38.6°F3.7°C 78% Calm Calm 1.0 mph1.6 kmh 30.12 in1020.0 mb 0.00 in0.0 mm 0.00 in0.0 mm 0.00 in0.0 mm
02:06 AM 44.7°F7.1°C 38.3°F3.5°C 78% Calm Calm -- 30.12 in1020.0 mb 0.00 in0.0 mm 0.00 in0.0 mm 0.00 in0.0 mm
02:11 AM 44.6°F7.0°C 38.5°F3.6°C 79% Calm Calm -- 30.11 in1019.6 mb 0.00 in0.0 mm 0.00 in0.0 mm 0.00 in0.0 mm
02:16 AM 44.4°F6.9°C 38.3°F3.5°C 79% Calm Calm -- 30.11 in1019.6 mb 0.00 in0.0 mm 0.00 in0.0 mm 0.00 in0.0 mm
02:21 AM 44.3°F6.8°C 38.5°F3.6°C 80% Calm Calm -- 30.11 in1019.6 mb 0.00 in0.0 mm 0.00 in0.0 mm 0.00 in0.0 mm
02:26 AM 44.3°F6.8°C 38.5°F3.6°C 80% Calm Calm -- 30.11 in1019.6 mb 0.00 in0.0 mm 0.00 in0.0 mm 0.00 in0.0 mm
02:31 AM 44.3°F6.8°C 38.5°F3.6°C 80% Calm Calm -- 30.11 in1019.6 mb 0.00 in0.0 mm 0.00 in0.0 mm 0.00 in0.0 mm
02:36 AM 44.4°F6.9°C 38.6°F3.7°C 80% Calm Calm -- 30.11 in1019.6 mb 0.00 in0.0 mm 0.00 in0.0 mm 0.00 in0.0 mm
02:41 AM 44.6°F7.0°C 38.5°F3.6°C 79% Calm Calm -- 30.11 in1019.6 mb 0.00 in0.0 mm 0.00 in0.0 mm 0.00 in0.0 mm
02:46 AM 44.7°F7.1°C 38.6°F3.7°C 79% Calm Calm -- 30.11 in1019.6 mb 0.00 in0.0 mm 0.00 in0.0 mm 0.00 in0.0 mm
02:51 AM 44.9°F7.2°C 38.8°F3.8°C 79% Calm Calm -- 30.11 in1019.6 mb 0.00 in0.0 mm 0.00 in0.0 mm 0.00 in0.0 mm
02:56 AM 44.7°F7.1°C 38.6°F3.7°C 79% Calm Calm -- 30.11 in1019.6 mb 0.00 in0.0 mm 0.00 in0.0 mm 0.00 in0.0 mm
03:01 AM 44.5°F6.9°C 38.7°F3.7°C 80% Calm Calm -- 30.11 in1019.6 mb 0.00 in0.0 mm 0.00 in0.0 mm 0.00 in0.0 mm
03:06 AM 44.6°F7.0°C 38.8°F3.8°C 80% Calm Calm -- 30.11 in1019.6 mb 0.00 in0.0 mm 0.00 in0.0 mm 0.00 in0.0 mm
03:11 AM 44.7°F7.1°C 38.9°F3.8°C 80% Calm Calm -- 30.12 in1020.0 mb 0.00 in0.0 mm 0.00 in0.0 mm 0.00 in0.0 mm
03:16 AM 44.7°F7.1°C 38.9°F3.8°C 80% Calm Calm -- 30.11 in1019.6 mb 0.00 in0.0 mm 0.00 in0.0 mm 0.00 in0.0 mm
03:21 AM 44.6°F7.0°C 38.8°F3.8°C 80% Calm Calm -- 30.11 in1019.6 mb 0.00 in0.0 mm 0.00 in0.0 mm 0.00 in0.0 mm
03:26 AM 44.4°F6.9°C 38.6°F3.7°C 80% Calm Calm -- 30.11 in1019.6 mb 0.00 in0.0 mm 0.00 in0.0 mm 0.00 in0.0 mm
03:31 AM 44.3°F6.8°C 38.9°F3.8°C 81% Calm Calm -- 30.11 in1019.6 mb 0.00 in0.0 mm 0.00 in0.0 mm 0.00 in0.0 mm
03:36 AM 44.2°F6.8°C 38.8°F3.8°C 81% Calm Calm -- 30.11 in1019.6 mb 0.00 in0.0 mm 0.00 in0.0 mm 0.00 in0.0 mm
03:41 AM 44.2°F6.8°C 38.8°F3.8°C 81% Calm Calm -- 30.11 in1019.6 mb 0.00 in0.0 mm 0.00 in0.0 mm 0.00 in0.0 mm
03:46 AM 44.2°F6.8°C 38.8°F3.8°C 81% Calm Calm 1.0 mph1.6 kmh 30.10 in1019.3 mb 0.00 in0.0 mm 0.00 in0.0 mm 0.00 in0.0 mm
03:51 AM 44.1°F6.7°C 39.0°F3.9°C 82% Calm Calm 1.0 mph1.6 kmh 30.10 in1019.3 mb 0.00 in0.0 mm 0.00 in0.0 mm 0.00 in0.0 mm
03:56 AM 44.0°F6.7°C 38.9°F3.8°C 82% 1.0 mph ENE1.6 kmh ENE 1.0 mph1.6 kmh 30.10 in1019.3 mb 0.00 in0.0 mm 0.00 in0.0 mm 0.00 in0.0 mm
04:01 AM 44.1°F6.7°C 39.0°F3.9°C 82% Calm Calm 1.0 mph1.6 kmh 30.10 in1019.3 mb 0.00 in0.0 mm 0.00 in0.0 mm 0.00 in0.0 mm
04:06 AM 43.9°F6.6°C 38.8°F3.8°C 82% Calm Calm 1.0 mph1.6 kmh 30.10 in1019.3 mb 0.00 in0.0 mm 0.00 in0.0 mm 0.00 in0.0 mm
04:11 AM 43.7°F6.5°C 38.9°F3.8°C 83% Calm Calm 1.0 mph1.6 kmh 30.11 in1019.6 mb 0.00 in0.0 mm 0.00 in0.0 mm 0.00 in0.0 mm
04:16 AM 43.7°F6.5°C 38.9°F3.8°C 83% Calm Calm -- 30.10 in1019.3 mb 0.00 in0.0 mm 0.00 in0.0 mm 0.00 in0.0 mm
04:21 AM 43.5°F6.4°C 38.7°F3.7°C 83% Calm Calm -- 30.10 in1019.3 mb 0.00 in0.0 mm 0.00 in0.0 mm 0.00 in0.0 mm
04:26 AM 43.5°F6.4°C 39.0°F3.9°C 84% Calm Calm -- 30.10 in1019.3 mb 0.00 in0.0 mm 0.00 in0.0 mm 0.00 in0.0 mm
04:31 AM 43.3°F6.3°C 38.8°F3.8°C 84% Calm Calm -- 30.11 in1019.6 mb 0.00 in0.0 mm 0.00 in0.0 mm 0.00 in0.0 mm
04:36 AM 43.2°F6.2°C 38.7°F3.7°C 84% Calm Calm -- 30.11 in1019.6 mb 0.00 in0.0 mm 0.00 in0.0 mm 0.00 in0.0 mm
04:41 AM 43.2°F6.2°C 38.7°F3.7°C 84% Calm Calm -- 30.11 in1019.6 mb 0.00 in0.0 mm 0.00 in0.0 mm 0.00 in0.0 mm
04:46 AM 43.3°F6.3°C 39.1°F3.9°C 85% Calm Calm -- 30.11 in1019.6 mb 0.00 in0.0 mm 0.00 in0.0 mm 0.00 in0.0 mm
04:51 AM 43.3°F6.3°C 39.1°F3.9°C 85% Calm Calm -- 30.11 in1019.6 mb 0.00 in0.0 mm 0.00 in0.0 mm 0.00 in0.0 mm
04:56 AM 43.4°F6.3°C 39.2°F4.0°C 85% Calm Calm -- 30.11 in1019.6 mb 0.00 in0.0 mm 0.00 in0.0 mm 0.00 in0.0 mm
05:01 AM 43.3°F6.3°C 39.1°F3.9°C 85% Calm Calm -- 30.11 in1019.6 mb 0.00 in0.0 mm 0.00 in0.0 mm 0.00 in0.0 mm
05:06 AM 43.3°F6.3°C 39.1°F3.9°C 85% Calm Calm -- 30.10 in1019.3 mb 0.00 in0.0 mm 0.00 in0.0 mm 0.00 in0.0 mm
05:11 AM 43.2°F6.2°C 39.3°F4.1°C 86% Calm Calm -- 30.11 in1019.6 mb 0.00 in0.0 mm 0.00 in0.0 mm 0.00 in0.0 mm
05:16 AM 43.3°F6.3°C 39.4°F4.1°C 86% 1.0 mph E1.6 kmh E 1.0 mph1.6 kmh 30.11 in1019.6 mb 0.00 in0.0 mm 0.00 in0.0 mm 0.00 in0.0 mm
05:21 AM 43.2°F6.2°C 39.3°F4.1°C 86% Calm Calm 1.0 mph1.6 kmh 30.11 in1019.6 mb 0.00 in0.0 mm 0.00 in0.0 mm 0.00 in0.0 mm
05:26 AM 43.2°F6.2°C 39.3°F4.1°C 86% 1.0 mph ENE1.6 kmh ENE 1.0 mph1.6 kmh 30.10 in1019.3 mb 0.00 in0.0 mm 0.00 in0.0 mm 0.00 in0.0 mm
05:31 AM 43.1°F6.2°C 39.5°F4.2°C 87% Calm Calm 1.0 mph1.6 kmh 30.10 in1019.3 mb 0.00 in0.0 mm 0.00 in0.0 mm 0.00 in0.0 mm
05:36 AM 43.0°F6.1°C 39.4°F4.1°C 87% Calm Calm 1.0 mph1.6 kmh 30.11 in1019.6 mb 0.00 in0.0 mm 0.00 in0.0 mm 0.00 in0.0 mm
05:41 AM 43.0°F6.1°C 39.4°F4.1°C 87% 1.0 mph E1.6 kmh E 1.0 mph1.6 kmh 30.11 in1019.6 mb 0.00 in0.0 mm 0.00 in0.0 mm 0.00 in0.0 mm
05:46 AM 43.0°F6.1°C 39.4°F4.1°C 87% Calm Calm 1.0 mph1.6 kmh 30.12 in1020.0 mb 0.00 in0.0 mm 0.00 in0.0 mm 0.00 in0.0 mm
05:51 AM 43.0°F6.1°C 39.7°F4.3°C 88% Calm Calm 1.0 mph1.6 kmh 30.12 in1020.0 mb 0.00 in0.0 mm 0.00 in0.0 mm 0.00 in0.0 mm
05:56 AM 43.0°F6.1°C 39.7°F4.3°C 88% Calm Calm 1.0 mph1.6 kmh 30.12 in1020.0 mb 0.00 in0.0 mm 0.00 in0.0 mm 0.00 in0.0 mm
06:01 AM 43.0°F6.1°C 39.7°F4.3°C 88% 1.7 mph E2.7 kmh E 3.0 mph4.8 kmh 30.12 in1020.0 mb 0.00 in0.0 mm 0.00 in0.0 mm 0.00 in0.0 mm
06:06 AM 43.1°F6.2°C 39.8°F4.3°C 88% 1.7 mph E2.7 kmh E 3.0 mph4.8 kmh 30.12 in1020.0 mb 0.00 in0.0 mm 0.00 in0.0 mm 0.00 in0.0 mm
06:11 AM 43.2°F6.2°C 40.1°F4.5°C 89% Calm Calm 3.0 mph4.8 kmh 30.11 in1019.6 mb 0.00 in0.0 mm 0.00 in0.0 mm 0.00 in0.0 mm
06:16 AM 43.2°F6.2°C 40.1°F4.5°C 89% 1.0 mph E1.6 kmh E 3.0 mph4.8 kmh 30.12 in1020.0 mb 0.00 in0.0 mm 0.00 in0.0 mm 0.00 in0.0 mm
06:21 AM 43.2°F6.2°C 40.1°F4.5°C 89% 1.0 mph E1.6 kmh E 3.0 mph4.8 kmh 30.12 in1020.0 mb 0.00 in0.0 mm 0.00 in0.0 mm 0.00 in0.0 mm
06:26 AM 43.1°F6.2°C 40.1°F4.5°C 89% Calm Calm 2.0 mph3.2 kmh 30.12 in1020.0 mb 0.00 in0.0 mm 0.00 in0.0 mm 0.00 in0.0 mm
06:31 AM 43.1°F6.2°C 40.0°F4.4°C 89% Calm Calm 1.0 mph1.6 kmh 30.12 in1020.0 mb 0.00 in0.0 mm 0.00 in0.0 mm 0.00 in0.0 mm
06:36 AM 43.1°F6.2°C 40.3°F4.6°C 90% 1.0 mph E1.6 kmh E 1.0 mph1.6 kmh 30.12 in1020.0 mb 0.00 in0.0 mm 0.00 in0.0 mm 0.00 in0.0 mm
06:41 AM 43.1°F6.2°C 40.4°F4.7°C 90% Calm Calm 1.0 mph1.6 kmh 30.12 in1020.0 mb 0.00 in0.0 mm 0.00 in0.0 mm 0.00 in0.0 mm
06:46 AM 43.1°F6.2°C 40.3°F4.6°C 90% Calm Calm 1.0 mph1.6 kmh 30.13 in1020.3 mb 0.00 in0.0 mm 0.00 in0.0 mm 0.00 in0.0 mm
06:50 AM 43.2°F6.2°C 40.7°F4.8°C 91% Calm Calm 1.0 mph1.6 kmh 30.13 in1020.3 mb 0.00 in0.0 mm 0.00 in0.0 mm 0.00 in0.0 mm
06:55 AM 43.2°F6.2°C 40.7°F4.8°C 91% Calm Calm -- 30.13 in1020.3 mb 0.00 in0.0 mm 0.00 in0.0 mm 0.00 in0.0 mm
07:00 AM 43.1°F6.2°C 40.3°F4.6°C 90% Calm Calm -- 30.14 in1020.7 mb 0.00 in0.0 mm 0.00 in0.0 mm 0.00 in0.0 mm
07:05 AM 42.9°F6.1°C 40.2°F4.6°C 90% Calm Calm -- 30.14 in1020.7 mb 0.00 in0.0 mm 0.00 in0.0 mm 0.00 in0.0 mm
07:10 AM 42.7°F5.9°C 40.0°F4.4°C 90% Calm Calm -- 30.13 in1020.3 mb 0.00 in0.0 mm 0.00 in0.0 mm 0.00 in0.0 mm
07:15 AM 42.8°F6.0°C 40.3°F4.6°C 91% Calm Calm -- 30.14 in1020.7 mb 0.00 in0.0 mm 0.00 in0.0 mm 0.00 in0.0 mm
07:20 AM 42.9°F6.1°C 40.7°F4.8°C 92% Calm Calm -- 30.13 in1020.3 mb 0.00 in0.0 mm 0.00 in0.0 mm 0.00 in0.0 mm
07:25 AM 43.1°F6.2°C 40.9°F4.9°C 92% 1.0 mph ENE1.6 kmh ENE 1.0 mph1.6 kmh 30.13 in1020.3 mb 0.00 in0.0 mm 0.00 in0.0 mm 0.00 in0.0 mm
07:30 AM 43.1°F6.2°C 40.9°F4.9°C 92% 1.0 mph ENE1.6 kmh ENE 2.0 mph3.2 kmh 30.13 in1020.3 mb 0.00 in0.0 mm 0.00 in0.0 mm 0.00 in0.0 mm
07:35 AM 43.1°F6.2°C 40.9°F4.9°C 92% Calm Calm 2.0 mph3.2 kmh 30.13 in1020.3 mb 0.00 in0.0 mm 0.00 in0.0 mm 0.00 in0.0 mm
07:40 AM 43.0°F6.1°C 40.8°F4.9°C 92% 1.0 mph ENE1.6 kmh ENE 2.0 mph3.2 kmh 30.13 in1020.3 mb 0.00 in0.0 mm 0.00 in0.0 mm 0.00 in0.0 mm
07:45 AM 42.9°F6.1°C 40.7°F4.8°C 92% 1.0 mph E1.6 kmh E 3.0 mph4.8 kmh 30.13 in1020.3 mb 0.00 in0.0 mm 0.00 in0.0 mm 0.00 in0.0 mm
07:50 AM 42.9°F6.1°C 40.7°F4.8°C 92% Calm Calm 3.0 mph4.8 kmh 30.13 in1020.3 mb 0.00 in0.0 mm 0.00 in0.0 mm 0.00 in0.0 mm
07:55 AM 42.8°F6.0°C 40.9°F4.9°C 93% Calm Calm 3.0 mph4.8 kmh 30.13 in1020.3 mb 0.00 in0.0 mm 0.00 in0.0 mm 0.00 in0.0 mm
08:00 AM 42.9°F6.1°C 41.0°F5.0°C 93% Calm Calm 3.0 mph4.8 kmh 30.14 in1020.7 mb 0.00 in0.0 mm 0.00 in0.0 mm 0.00 in0.0 mm
08:05 AM 42.7°F5.9°C 40.5°F4.7°C 92% Calm Calm 2.0 mph3.2 kmh 30.14 in1020.7 mb 0.00 in0.0 mm 0.00 in0.0 mm 0.00 in0.0 mm
08:10 AM 42.4°F5.8°C 40.2°F4.6°C 92% Calm Calm 1.0 mph1.6 kmh 30.14 in1020.7 mb 0.00 in0.0 mm 0.00 in0.0 mm 0.00 in0.0 mm
08:15 AM 42.2°F5.7°C 40.0°F4.4°C 92% Calm Calm -- 30.14 in1020.7 mb 0.00 in0.0 mm 0.00 in0.0 mm 0.00 in0.0 mm
08:20 AM 42.1°F5.6°C 39.9°F4.4°C 92% Calm Calm -- 30.14 in1020.7 mb 0.00 in0.0 mm 0.00 in0.0 mm 0.00 in0.0 mm
08:25 AM 42.1°F5.6°C 39.9°F4.4°C 92% Calm Calm -- 30.14 in1020.7 mb 0.00 in0.0 mm 0.00 in0.0 mm 0.00 in0.0 mm
08:30 AM 42.3°F5.7°C 40.4°F4.7°C 93% Calm Calm 1.0 mph1.6 kmh 30.14 in1020.7 mb 0.00 in0.0 mm 0.00 in0.0 mm 0.00 in0.0 mm
08:35 AM 42.5°F5.8°C 40.6°F4.8°C 93% 1.0 mph NNE1.6 kmh NNE 1.0 mph1.6 kmh 30.14 in1020.7 mb 0.00 in0.0 mm 0.00 in0.0 mm 0.00 in0.0 mm
08:40 AM 42.6°F5.9°C 40.7°F4.8°C 93% 1.0 mph ENE1.6 kmh ENE 1.0 mph1.6 kmh 30.14 in1020.7 mb 0.00 in0.0 mm 0.00 in0.0 mm 0.00 in0.0 mm
08:45 AM 42.7°F5.9°C 40.8°F4.9°C 93% 1.0 mph E1.6 kmh E 1.0 mph1.6 kmh 30.15 in1021.0 mb 0.00 in0.0 mm 0.00 in0.0 mm 0.00 in0.0 mm
08:50 AM 42.7°F5.9°C 40.5°F4.7°C 92% Calm Calm 1.0 mph1.6 kmh 30.15 in1021.0 mb 0.00 in0.0 mm 0.00 in0.0 mm 0.00 in0.0 mm
08:55 AM 42.6°F5.9°C 40.4°F4.7°C 92% 1.0 mph NNE1.6 kmh NNE 1.0 mph1.6 kmh 30.15 in1021.0 mb 0.00 in0.0 mm 0.00 in0.0 mm 0.00 in0.0 mm
09:00 AM 42.5°F5.8°C 40.3°F4.6°C 92% 1.0 mph NE1.6 kmh NE 2.0 mph3.2 kmh 30.15 in1021.0 mb 0.00 in0.0 mm 0.00 in0.0 mm 0.00 in0.0 mm
09:05 AM 42.5°F5.8°C 40.3°F4.6°C 92% Calm Calm 2.0 mph3.2 kmh 30.15 in1021.0 mb 0.00 in0.0 mm 0.00 in0.0 mm 0.00 in0.0 mm
09:10 AM 42.7°F5.9°C 40.5°F4.7°C 92% Calm Calm 2.0 mph3.2 kmh 30.15 in1021.0 mb 0.00 in0.0 mm 0.00 in0.0 mm 0.00 in0.0 mm
09:15 AM 42.9°F6.1°C 40.7°F4.8°C 92% Calm Calm 2.0 mph3.2 kmh 30.15 in1021.0 mb 0.00 in0.0 mm 0.00 in0.0 mm 0.00 in0.0 mm
09:20 AM 43.2°F6.2°C 41.0°F5.0°C 92% 1.0 mph NE1.6 kmh NE 1.0 mph1.6 kmh 30.15 in1021.0 mb 0.00 in0.0 mm 0.00 in0.0 mm 0.00 in0.0 mm
09:25 AM 43.5°F6.4°C 41.0°F5.0°C 91% Calm Calm 1.0 mph1.6 kmh 30.15 in1021.0 mb 0.00 in0.0 mm 0.00 in0.0 mm 0.00 in0.0 mm
09:30 AM 43.8°F6.6°C 41.3°F5.2°C 91% Calm Calm 1.0 mph1.6 kmh 30.15 in1021.0 mb 0.00 in0.0 mm 0.00 in0.0 mm 0.00 in0.0 mm
09:35 AM 44.2°F6.8°C 41.5°F5.3°C 90% Calm Calm 1.0 mph1.6 kmh 30.16 in1021.3 mb 0.00 in0.0 mm 0.00 in0.0 mm 0.00 in0.0 mm
09:40 AM 44.6°F7.0°C 41.8°F5.4°C 90% Calm Calm 1.0 mph1.6 kmh 30.16 in1021.3 mb 0.00 in0.0 mm 0.00 in0.0 mm 0.00 in0.0 mm
09:45 AM 45.2°F7.3°C 42.1°F5.6°C 89% 1.0 mph ENE1.6 kmh ENE 1.0 mph1.6 kmh 30.16 in1021.3 mb 0.00 in0.0 mm 0.00 in0.0 mm 0.00 in0.0 mm
09:51 AM 45.4°F7.4°C 41.7°F5.4°C 87% Calm Calm 1.0 mph1.6 kmh 30.16 in1021.3 mb 0.00 in0.0 mm 0.00 in0.0 mm 0.00 in0.0 mm
09:55 AM 45.9°F7.7°C 42.2°F5.7°C 87% 1.0 mph ENE1.6 kmh ENE 1.0 mph1.6 kmh 30.16 in1021.3 mb 0.00 in0.0 mm 0.00 in0.0 mm 0.00 in0.0 mm
10:00 AM 46.3°F7.9°C 42.0°F5.6°C 85% 1.0 mph NE1.6 kmh NE 1.0 mph1.6 kmh 30.16 in1021.3 mb 0.00 in0.0 mm 0.00 in0.0 mm 0.00 in0.0 mm
10:05 AM 46.6°F8.1°C 42.0°F5.6°C 84% 2.8 mph E4.5 kmh E 5.0 mph8.0 kmh 30.15 in1021.0 mb 0.00 in0.0 mm 0.00 in0.0 mm 0.00 in0.0 mm
10:11 AM 47.0°F8.3°C 42.4°F5.8°C 84% 1.9 mph ENE3.1 kmh ENE 5.0 mph8.0 kmh 30.15 in1021.0 mb 0.00 in0.0 mm 0.00 in0.0 mm 0.00 in0.0 mm
10:16 AM 47.1°F8.4°C 42.2°F5.7°C 83% 1.4 mph E2.3 kmh E 6.0 mph9.7 kmh 30.15 in1021.0 mb 0.00 in0.0 mm 0.00 in0.0 mm 0.00 in0.0 mm
10:20 AM 47.6°F8.7°C 42.4°F5.8°C 82% 2.0 mph ENE3.2 kmh ENE 6.0 mph9.7 kmh 30.15 in1021.0 mb 0.00 in0.0 mm 0.00 in0.0 mm 0.00 in0.0 mm
10:26 AM 47.9°F8.8°C 42.4°F5.8°C 81% 1.6 mph E2.6 kmh E 6.0 mph9.7 kmh 30.15 in1021.0 mb 0.00 in0.0 mm 0.00 in0.0 mm 0.00 in0.0 mm
10:30 AM 48.3°F9.1°C 42.4°F5.8°C 80% 1.6 mph E2.6 kmh E 6.0 mph9.7 kmh 30.15 in1021.0 mb 0.00 in0.0 mm 0.00 in0.0 mm 0.00 in0.0 mm
10:36 AM 48.5°F9.2°C 42.3°F5.7°C 79% 1.1 mph E1.8 kmh E 5.0 mph8.0 kmh 30.14 in1020.7 mb 0.00 in0.0 mm 0.00 in0.0 mm 0.00 in0.0 mm
10:41 AM 49.0°F9.4°C 42.8°F6.0°C 79% 1.0 mph E1.6 kmh E 5.0 mph8.0 kmh 30.14 in1020.7 mb 0.00 in0.0 mm 0.00 in0.0 mm 0.00 in0.0 mm
10:46 AM 49.3°F9.6°C 42.8°F6.0°C 78% 1.6 mph E2.6 kmh E 5.0 mph8.0 kmh 30.13 in1020.3 mb 0.00 in0.0 mm 0.00 in0.0 mm 0.00 in0.0 mm
10:51 AM 49.7°F9.8°C 42.8°F6.0°C 77% 2.0 mph E3.2 kmh E 3.0 mph4.8 kmh 30.13 in1020.3 mb 0.00 in0.0 mm 0.00 in0.0 mm 0.00 in0.0 mm
10:56 AM 50.2°F10.1°C 42.7°F5.9°C 75% 2.5 mph E4.0 kmh E 5.0 mph8.0 kmh 30.13 in1020.3 mb 0.00 in0.0 mm 0.00 in0.0 mm 0.00 in0.0 mm
11:01 AM 50.6°F10.3°C 42.7°F5.9°C 74% 1.8 mph ENE2.9 kmh ENE 5.0 mph8.0 kmh 30.13 in1020.3 mb 0.00 in0.0 mm 0.00 in0.0 mm 0.00 in0.0 mm
11:06 AM 51.1°F10.6°C 42.1°F5.6°C 71% 1.9 mph E3.1 kmh E 5.0 mph8.0 kmh 30.13 in1020.3 mb 0.00 in0.0 mm 0.00 in0.0 mm 0.00 in0.0 mm
11:11 AM 51.4°F10.8°C 42.4°F5.8°C 71% 2.5 mph E4.0 kmh E 5.0 mph8.0 kmh 30.12 in1020.0 mb 0.00 in0.0 mm 0.00 in0.0 mm 0.00 in0.0 mm
11:16 AM 51.6°F10.9°C 42.2°F5.7°C 70% 2.8 mph E4.5 kmh E 7.0 mph11.3 kmh 30.12 in1020.0 mb 0.00 in0.0 mm 0.00 in0.0 mm 0.00 in0.0 mm
11:21 AM 52.1°F11.2°C 43.0°F6.1°C 71% 1.0 mph E1.6 kmh E 7.0 mph11.3 kmh 30.11 in1019.6 mb 0.00 in0.0 mm 0.00 in0.0 mm 0.00 in0.0 mm
11:26 AM 52.8°F11.6°C 43.0°F6.1°C 69% 1.6 mph ENE2.6 kmh ENE 7.0 mph11.3 kmh 30.12 in1020.0 mb 0.00 in0.0 mm 0.00 in0.0 mm 0.00 in0.0 mm
11:31 AM 53.2°F11.8°C 42.6°F5.9°C 67% 2.1 mph SE3.4 kmh SE 7.0 mph11.3 kmh 30.12 in1020.0 mb 0.00 in0.0 mm 0.00 in0.0 mm 0.00 in0.0 mm
11:36 AM 53.5°F11.9°C 42.9°F6.1°C 67% 5.5 mph SE8.9 kmh SE 8.0 mph12.9 kmh 30.11 in1019.6 mb 0.00 in0.0 mm 0.00 in0.0 mm 0.00 in0.0 mm
11:41 AM 53.8°F12.1°C 43.2°F6.2°C 67% 2.0 mph SE3.2 kmh SE 8.0 mph12.9 kmh 30.11 in1019.6 mb 0.00 in0.0 mm 0.00 in0.0 mm 0.00 in0.0 mm
11:46 AM 54.3°F12.4°C 42.9°F6.1°C 65% 2.8 mph SE4.5 kmh SE 8.0 mph12.9 kmh 30.11 in1019.6 mb 0.00 in0.0 mm 0.00 in0.0 mm 0.00 in0.0 mm
11:50 AM 54.5°F12.5°C 43.5°F6.4°C 66% 2.7 mph SE4.3 kmh SE 8.0 mph12.9 kmh 30.11 in1019.6 mb 0.00 in0.0 mm 0.00 in0.0 mm 0.00 in0.0 mm
11:55 AM 54.5°F12.5°C 43.5°F6.4°C 66% 1.8 mph SSE2.9 kmh SSE 6.0 mph9.7 kmh 30.10 in1019.3 mb 0.00 in0.0 mm 0.00 in0.0 mm 0.00 in0.0 mm
12:00 PM 54.6°F12.6°C 43.2°F6.2°C 65% 3.0 mph SE4.8 kmh SE 6.0 mph9.7 kmh 30.10 in1019.3 mb 0.00 in0.0 mm 0.00 in0.0 mm 0.00 in0.0 mm
12:05 PM 54.5°F12.5°C 43.1°F6.2°C 65% 2.7 mph SE4.3 kmh SE 7.0 mph11.3 kmh 30.10 in1019.3 mb 0.00 in0.0 mm 0.00 in0.0 mm 0.00 in0.0 mm
12:10 PM 54.9°F12.7°C 43.5°F6.4°C 65% 2.2 mph SE3.5 kmh SE 7.0 mph11.3 kmh 30.10 in1019.3 mb 0.00 in0.0 mm 0.00 in0.0 mm 0.00 in0.0 mm
12:15 PM 55.1°F12.8°C 43.3°F6.3°C 64% 2.0 mph SE3.2 kmh SE 7.0 mph11.3 kmh 30.09 in1019.0 mb 0.00 in0.0 mm 0.00 in0.0 mm 0.00 in0.0 mm
12:20 PM 55.4°F13.0°C 43.6°F6.4°C 64% 2.2 mph ESE3.5 kmh ESE 7.0 mph11.3 kmh 30.09 in1019.0 mb 0.00 in0.0 mm 0.00 in0.0 mm 0.00 in0.0 mm
12:25 PM 55.7°F13.2°C 43.8°F6.6°C 64% 1.6 mph SE2.6 kmh SE 6.0 mph9.7 kmh 30.08 in1018.6 mb 0.00 in0.0 mm 0.00 in0.0 mm 0.00 in0.0 mm
12:30 PM 56.0°F13.3°C 43.7°F6.5°C 63% 3.5 mph SE5.6 kmh SE 6.0 mph9.7 kmh 30.08 in1018.6 mb 0.00 in0.0 mm 0.00 in0.0 mm 0.00 in0.0 mm
12:35 PM 56.3°F13.5°C 44.0°F6.7°C 63% 3.1 mph E5.0 kmh E 8.0 mph12.9 kmh 30.07 in1018.3 mb 0.00 in0.0 mm 0.00 in0.0 mm 0.00 in0.0 mm
12:40 PM 56.5°F13.6°C 44.2°F6.8°C 63% 3.5 mph E5.6 kmh E 8.0 mph12.9 kmh 30.07 in1018.3 mb 0.00 in0.0 mm 0.00 in0.0 mm 0.00 in0.0 mm
12:45 PM 56.7°F13.7°C 43.9°F6.6°C 62% 3.1 mph ESE5.0 kmh ESE 8.0 mph12.9 kmh 30.07 in1018.3 mb 0.00 in0.0 mm 0.00 in0.0 mm 0.00 in0.0 mm
12:50 PM 56.7°F13.7°C 43.5°F6.4°C 61% 3.5 mph E5.6 kmh E 7.0 mph11.3 kmh 30.06 in1017.9 mb 0.00 in0.0 mm 0.00 in0.0 mm 0.00 in0.0 mm
12:55 PM 56.7°F13.7°C 43.5°F6.4°C 61% 3.6 mph ESE5.8 kmh ESE 9.0 mph14.5 kmh 30.07 in1018.3 mb 0.00 in0.0 mm 0.00 in0.0 mm 0.00 in0.0 mm
01:00 PM 56.8°F13.8°C 43.6°F6.4°C 61% 1.7 mph ESE2.7 kmh ESE 9.0 mph14.5 kmh 30.06 in1017.9 mb 0.00 in0.0 mm 0.00 in0.0 mm 0.00 in0.0 mm
01:05 PM 57.0°F13.9°C 43.4°F6.3°C 60% 5.8 mph ESE9.3 kmh ESE 10.0 mph16.1 kmh 30.06 in1017.9 mb 0.00 in0.0 mm 0.00 in0.0 mm 0.00 in0.0 mm
01:10 PM 57.5°F14.2°C 44.3°F6.8°C 61% 2.8 mph SE4.5 kmh SE 10.0 mph16.1 kmh 30.06 in1017.9 mb 0.00 in0.0 mm 0.00 in0.0 mm 0.00 in0.0 mm
01:15 PM 57.8°F14.3°C 44.1°F6.7°C 60% 2.1 mph SSE3.4 kmh SSE 10.0 mph16.1 kmh 30.05 in1017.6 mb 0.00 in0.0 mm 0.00 in0.0 mm 0.00 in0.0 mm
01:20 PM 58.0°F14.4°C 43.4°F6.3°C 58% 2.7 mph SE4.3 kmh SE 10.0 mph16.1 kmh 30.05 in1017.6 mb 0.00 in0.0 mm 0.00 in0.0 mm 0.00 in0.0 mm
01:25 PM 58.0°F14.4°C 44.3°F6.8°C 60% 1.0 mph SE1.6 kmh SE 7.0 mph11.3 kmh 30.05 in1017.6 mb 0.00 in0.0 mm 0.00 in0.0 mm 0.00 in0.0 mm
01:30 PM 58.1°F14.5°C 44.0°F6.7°C 59% 3.7 mph ESE6.0 kmh ESE 10.0 mph16.1 kmh 30.05 in1017.6 mb 0.00 in0.0 mm 0.00 in0.0 mm 0.00 in0.0 mm
01:35 PM 58.2°F14.6°C 43.6°F6.4°C 58% 4.3 mph SSE6.9 kmh SSE 10.0 mph16.1 kmh 30.04 in1017.3 mb 0.00 in0.0 mm 0.00 in0.0 mm 0.00 in0.0 mm
01:40 PM 58.2°F14.6°C 43.6°F6.4°C 58% 4.4 mph SE7.1 kmh SE 10.0 mph16.1 kmh 30.04 in1017.3 mb 0.00 in0.0 mm 0.00 in0.0 mm 0.00 in0.0 mm
01:45 PM 58.3°F14.6°C 43.7°F6.5°C 58% 5.4 mph SE8.7 kmh SE 10.0 mph16.1 kmh 30.03 in1016.9 mb 0.00 in0.0 mm 0.00 in0.0 mm 0.00 in0.0 mm
01:50 PM 58.3°F14.6°C 44.1°F6.7°C 59% 1.0 mph SE1.6 kmh SE 10.0 mph16.1 kmh 30.03 in1016.9 mb 0.00 in0.0 mm 0.00 in0.0 mm 0.00 in0.0 mm
01:55 PM 58.7°F14.8°C 43.6°F6.4°C 57% 2.9 mph E4.7 kmh E 10.0 mph16.1 kmh 30.03 in1016.9 mb 0.00 in0.0 mm 0.00 in0.0 mm 0.00 in0.0 mm
02:00 PM 58.5°F14.7°C 43.9°F6.6°C 58% 1.3 mph SSE2.1 kmh SSE 9.0 mph14.5 kmh 30.02 in1016.6 mb 0.00 in0.0 mm 0.00 in0.0 mm 0.00 in0.0 mm
02:05 PM 58.9°F14.9°C 44.3°F6.8°C 58% 3.5 mph SE5.6 kmh SE 7.0 mph11.3 kmh 30.02 in1016.6 mb 0.00 in0.0 mm 0.00 in0.0 mm 0.00 in0.0 mm
02:10 PM 59.3°F15.2°C 44.6°F7.0°C 58% 1.8 mph SE2.9 kmh SE 8.0 mph12.9 kmh 30.02 in1016.6 mb 0.00 in0.0 mm 0.00 in0.0 mm 0.00 in0.0 mm
02:15 PM 59.5°F15.3°C 44.4°F6.9°C 57% 1.5 mph ESE2.4 kmh ESE 9.0 mph14.5 kmh 30.02 in1016.6 mb 0.00 in0.0 mm 0.00 in0.0 mm 0.00 in0.0 mm
02:20 PM 59.4°F15.2°C 43.8°F6.6°C 56% 4.4 mph E7.1 kmh E 9.0 mph14.5 kmh 30.01 in1016.3 mb 0.00 in0.0 mm 0.00 in0.0 mm 0.00 in0.0 mm
02:25 PM 59.6°F15.3°C 44.0°F6.7°C 56% 2.9 mph ESE4.7 kmh ESE 9.0 mph14.5 kmh 30.01 in1016.3 mb 0.00 in0.0 mm 0.00 in0.0 mm 0.00 in0.0 mm
02:30 PM 59.4°F15.2°C 43.7°F6.5°C 56% 3.7 mph E6.0 kmh E 13.0 mph20.9 kmh 30.01 in1016.3 mb 0.00 in0.0 mm 0.00 in0.0 mm 0.00 in0.0 mm
02:35 PM 59.7°F15.4°C 44.1°F6.7°C 56% 3.4 mph ESE5.5 kmh ESE 13.0 mph20.9 kmh 30.01 in1016.3 mb 0.00 in0.0 mm 0.00 in0.0 mm 0.00 in0.0 mm
02:40 PM 59.9°F15.5°C 43.8°F6.6°C 55% 3.1 mph ESE5.0 kmh ESE 13.0 mph20.9 kmh 30.00 in1015.9 mb 0.00 in0.0 mm 0.00 in0.0 mm 0.00 in0.0 mm
02:45 PM 59.8°F15.4°C 43.7°F6.5°C 55% 2.1 mph NE3.4 kmh NE 13.0 mph20.9 kmh 30.00 in1015.9 mb 0.00 in0.0 mm 0.00 in0.0 mm 0.00 in0.0 mm
02:50 PM 59.8°F15.4°C 43.7°F6.5°C 55% Calm Calm 10.0 mph16.1 kmh 30.00 in1015.9 mb 0.00 in0.0 mm 0.00 in0.0 mm 0.00 in0.0 mm
02:55 PM 59.9°F15.5°C 43.8°F6.6°C 55% 3.5 mph E5.6 kmh E 10.0 mph16.1 kmh 30.00 in1015.9 mb 0.00 in0.0 mm 0.00 in0.0 mm 0.00 in0.0 mm
03:00 PM 59.9°F15.5°C 43.3°F6.3°C 54% 1.0 mph ESE1.6 kmh ESE 7.0 mph11.3 kmh 30.00 in1015.9 mb 0.00 in0.0 mm 0.00 in0.0 mm 0.00 in0.0 mm
03:05 PM 59.8°F15.4°C 43.2°F6.2°C 54% 3.3 mph ESE5.3 kmh ESE 7.0 mph11.3 kmh 29.99 in1015.6 mb 0.00 in0.0 mm 0.00 in0.0 mm 0.00 in0.0 mm
03:10 PM 59.9°F15.5°C 42.8°F6.0°C 53% 5.1 mph SE8.2 kmh SE 9.0 mph14.5 kmh 29.99 in1015.6 mb 0.00 in0.0 mm 0.00 in0.0 mm 0.00 in0.0 mm
03:15 PM 59.9°F15.5°C 42.2°F5.7°C 52% 3.8 mph SE6.1 kmh SE 10.0 mph16.1 kmh 29.99 in1015.6 mb 0.00 in0.0 mm 0.00 in0.0 mm 0.00 in0.0 mm
03:20 PM 60.1°F15.6°C 43.0°F6.1°C 53% 3.5 mph SE5.6 kmh SE 10.0 mph16.1 kmh 29.99 in1015.6 mb 0.00 in0.0 mm 0.00 in0.0 mm 0.00 in0.0 mm
03:25 PM 60.2°F15.7°C 43.1°F6.2°C 53% 3.0 mph SSE4.8 kmh SSE 10.0 mph16.1 kmh 29.99 in1015.6 mb 0.00 in0.0 mm 0.00 in0.0 mm 0.00 in0.0 mm
03:30 PM 60.1°F15.6°C 42.5°F5.8°C 52% 3.9 mph SE6.3 kmh SE 11.0 mph17.7 kmh 29.99 in1015.6 mb 0.00 in0.0 mm 0.00 in0.0 mm 0.00 in0.0 mm
03:35 PM 59.6°F15.3°C 43.0°F6.1°C 54% 4.0 mph SE6.4 kmh SE 12.0 mph19.3 kmh 29.99 in1015.6 mb 0.00 in0.0 mm 0.00 in0.0 mm 0.00 in0.0 mm
03:40 PM 59.3°F15.2°C 43.2°F6.2°C 55% 4.9 mph SE7.9 kmh SE 12.0 mph19.3 kmh 29.99 in1015.6 mb 0.00 in0.0 mm 0.00 in0.0 mm 0.00 in0.0 mm
03:45 PM 59.0°F15.0°C 43.8°F6.6°C 57% 2.9 mph SE4.7 kmh SE 12.0 mph19.3 kmh 29.99 in1015.6 mb 0.00 in0.0 mm 0.00 in0.0 mm 0.00 in0.0 mm
03:50 PM 58.8°F14.9°C 44.0°F6.7°C 58% 3.4 mph SE5.5 kmh SE 12.0 mph19.3 kmh 29.99 in1015.6 mb 0.00 in0.0 mm 0.00 in0.0 mm 0.00 in0.0 mm
03:55 PM 58.7°F14.8°C 45.0°F7.2°C 60% 2.2 mph SSE3.5 kmh SSE 10.0 mph16.1 kmh 29.99 in1015.6 mb 0.00 in0.0 mm 0.00 in0.0 mm 0.00 in0.0 mm
04:00 PM 58.6°F14.8°C 45.3°F7.4°C 61% 1.9 mph SE3.1 kmh SE 11.0 mph17.7 kmh 29.99 in1015.6 mb 0.00 in0.0 mm 0.00 in0.0 mm 0.00 in0.0 mm
04:05 PM 58.6°F14.8°C 45.8°F7.7°C 62% 2.9 mph ESE4.7 kmh ESE 11.0 mph17.7 kmh 29.99 in1015.6 mb 0.00 in0.0 mm 0.00 in0.0 mm 0.00 in0.0 mm
04:10 PM 58.6°F14.8°C 45.6°F7.6°C 62% 1.3 mph SSE2.1 kmh SSE 11.0 mph17.7 kmh 29.99 in1015.6 mb 0.00 in0.0 mm 0.00 in0.0 mm 0.00 in0.0 mm
04:15 PM 58.6°F14.8°C 45.8°F7.7°C 62% 1.0 mph SE1.6 kmh SE 11.0 mph17.7 kmh 29.99 in1015.6 mb 0.00 in0.0 mm 0.00 in0.0 mm 0.00 in0.0 mm
04:20 PM 58.6°F14.8°C 45.8°F7.7°C 62% 2.0 mph SE3.2 kmh SE 8.0 mph12.9 kmh 29.99 in1015.6 mb 0.00 in0.0 mm 0.00 in0.0 mm 0.00 in0.0 mm
04:25 PM 58.5°F14.7°C 45.7°F7.6°C 62% 2.2 mph SE3.5 kmh SE 5.0 mph8.0 kmh 30.00 in1015.9 mb 0.00 in0.0 mm 0.00 in0.0 mm 0.00 in0.0 mm
04:30 PM 58.4°F14.7°C 46.0°F7.8°C 63% 2.2 mph SE3.5 kmh SE 5.0 mph8.0 kmh 30.00 in1015.9 mb 0.00 in0.0 mm 0.00 in0.0 mm 0.00 in0.0 mm
04:35 PM 58.3°F14.6°C 46.2°F7.9°C 64% 1.3 mph SSE2.1 kmh SSE 5.0 mph8.0 kmh 30.00 in1015.9 mb 0.00 in0.0 mm 0.00 in0.0 mm 0.00 in0.0 mm
04:40 PM 58.2°F14.6°C 46.2°F7.9°C 64% 1.0 mph SE1.6 kmh SE 5.0 mph8.0 kmh 30.00 in1015.9 mb 0.00 in0.0 mm 0.00 in0.0 mm 0.00 in0.0 mm
04:45 PM 58.1°F14.5°C 46.5°F8.1°C 65% 1.0 mph SE1.6 kmh SE 5.0 mph8.0 kmh 30.00 in1015.9 mb 0.00 in0.0 mm 0.00 in0.0 mm 0.00 in0.0 mm
04:49 PM 57.9°F14.4°C 46.3°F7.9°C 65% 1.4 mph SE2.3 kmh SE 5.0 mph8.0 kmh 30.00 in1015.9 mb 0.00 in0.0 mm 0.00 in0.0 mm 0.00 in0.0 mm
04:54 PM 57.7°F14.3°C 46.6°F8.1°C 66% 1.4 mph SE2.3 kmh SE 3.0 mph4.8 kmh 30.00 in1015.9 mb 0.00 in0.0 mm 0.00 in0.0 mm 0.00 in0.0 mm
04:59 PM 57.5°F14.2°C 46.8°F8.2°C 67% Calm Calm 3.0 mph4.8 kmh 30.00 in1015.9 mb 0.00 in0.0 mm 0.00 in0.0 mm 0.00 in0.0 mm
05:04 PM 57.4°F14.1°C 46.5°F8.1°C 67% 1.0 mph ESE1.6 kmh ESE 3.0 mph4.8 kmh 30.00 in1015.9 mb 0.00 in0.0 mm 0.00 in0.0 mm 0.00 in0.0 mm
05:09 PM 57.2°F14.0°C 46.5°F8.1°C 67% 1.0 mph E1.6 kmh E 2.0 mph3.2 kmh 30.00 in1015.9 mb 0.00 in0.0 mm 0.00 in0.0 mm 0.00 in0.0 mm
05:14 PM 57.1°F13.9°C 46.8°F8.2°C 68% 1.9 mph E3.1 kmh E 3.0 mph4.8 kmh 30.00 in1015.9 mb 0.00 in0.0 mm 0.00 in0.0 mm 0.00 in0.0 mm
05:19 PM 57.0°F13.9°C 47.1°F8.4°C 69% 3.1 mph E5.0 kmh E 7.0 mph11.3 kmh 30.00 in1015.9 mb 0.00 in0.0 mm 0.00 in0.0 mm 0.00 in0.0 mm
05:24 PM 56.8°F13.8°C 47.2°F8.4°C 70% 1.0 mph E1.6 kmh E 7.0 mph11.3 kmh 30.00 in1015.9 mb 0.00 in0.0 mm 0.00 in0.0 mm 0.00 in0.0 mm
05:29 PM 56.7°F13.7°C 47.1°F8.4°C 70% 2.1 mph ESE3.4 kmh ESE 7.0 mph11.3 kmh 30.00 in1015.9 mb 0.00 in0.0 mm 0.00 in0.0 mm 0.00 in0.0 mm
05:34 PM 56.5°F13.6°C 47.2°F8.4°C 71% 2.3 mph E3.7 kmh E 7.0 mph11.3 kmh 30.00 in1015.9 mb 0.00 in0.0 mm 0.00 in0.0 mm 0.00 in0.0 mm
05:39 PM 56.3°F13.5°C 47.5°F8.6°C 72% 2.3 mph ESE3.7 kmh ESE 6.0 mph9.7 kmh 30.00 in1015.9 mb 0.00 in0.0 mm 0.00 in0.0 mm 0.00 in0.0 mm
05:44 PM 56.1°F13.4°C 47.7°F8.7°C 73% 1.8 mph ESE2.9 kmh ESE 6.0 mph9.7 kmh 30.01 in1016.3 mb 0.00 in0.0 mm 0.00 in0.0 mm 0.00 in0.0 mm
05:49 PM 56.0°F13.3°C 47.6°F8.7°C 73% 1.4 mph SSE2.3 kmh SSE 5.0 mph8.0 kmh 30.00 in1015.9 mb 0.00 in0.0 mm 0.00 in0.0 mm 0.00 in0.0 mm
05:54 PM 55.9°F13.3°C 47.5°F8.6°C 73% Calm Calm 4.0 mph6.4 kmh 30.00 in1015.9 mb 0.00 in0.0 mm 0.00 in0.0 mm 0.00 in0.0 mm
05:59 PM 55.8°F13.2°C 47.7°F8.7°C 74% Calm Calm 4.0 mph6.4 kmh 30.00 in1015.9 mb 0.00 in0.0 mm 0.00 in0.0 mm 0.00 in0.0 mm
06:04 PM 55.7°F13.2°C 47.6°F8.7°C 74% 1.9 mph E3.1 kmh E 3.0 mph4.8 kmh 30.01 in1016.3 mb 0.00 in0.0 mm 0.00 in0.0 mm 0.00 in0.0 mm
06:09 PM 55.7°F13.2°C 47.6°F8.7°C 74% Calm Calm 3.0 mph4.8 kmh 30.01 in1016.3 mb 0.00 in0.0 mm 0.00 in0.0 mm 0.00 in0.0 mm
06:14 PM 55.6°F13.1°C 47.9°F8.8°C 75% Calm Calm 3.0 mph4.8 kmh 30.01 in1016.3 mb 0.00 in0.0 mm 0.00 in0.0 mm 0.00 in0.0 mm
06:19 PM 55.5°F13.1°C 47.8°F8.8°C 75% 1.5 mph SE2.4 kmh SE 3.0 mph4.8 kmh 30.01 in1016.3 mb 0.00 in0.0 mm 0.00 in0.0 mm 0.00 in0.0 mm
06:24 PM 55.5°F13.1°C 47.8°F8.8°C 75% 1.0 mph ESE1.6 kmh ESE 3.0 mph4.8 kmh 30.01 in1016.3 mb 0.00 in0.0 mm 0.00 in0.0 mm 0.00 in0.0 mm
06:29 PM 55.4°F13.0°C 48.0°F8.9°C 76% 1.7 mph ESE2.7 kmh ESE 4.0 mph6.4 kmh 30.01 in1016.3 mb 0.00 in0.0 mm 0.00 in0.0 mm 0.00 in0.0 mm
06:34 PM 55.3°F12.9°C 47.9°F8.8°C 76% 2.1 mph ESE3.4 kmh ESE 4.0 mph6.4 kmh 30.01 in1016.3 mb 0.00 in0.0 mm 0.00 in0.0 mm 0.00 in0.0 mm
06:39 PM 55.3°F12.9°C 47.9°F8.8°C 76% 3.1 mph ESE5.0 kmh ESE 8.0 mph12.9 kmh 30.01 in1016.3 mb 0.00 in0.0 mm 0.00 in0.0 mm 0.00 in0.0 mm
06:44 PM 55.2°F12.9°C 48.2°F9.0°C 77% 1.0 mph E1.6 kmh E 8.0 mph12.9 kmh 30.00 in1015.9 mb 0.00 in0.0 mm 0.00 in0.0 mm 0.00 in0.0 mm
06:49 PM 55.1°F12.8°C 48.0°F8.9°C 77% 2.0 mph E3.2 kmh E 8.0 mph12.9 kmh 30.00 in1015.9 mb 0.00 in0.0 mm 0.00 in0.0 mm 0.00 in0.0 mm
06:54 PM 55.1°F12.8°C 48.1°F8.9°C 77% 1.7 mph E2.7 kmh E 8.0 mph12.9 kmh 30.00 in1015.9 mb 0.00 in0.0 mm 0.00 in0.0 mm 0.00 in0.0 mm
06:59 PM 55.0°F12.8°C 48.0°F8.9°C 77% 1.0 mph E1.6 kmh E 4.0 mph6.4 kmh 30.00 in1015.9 mb 0.00 in0.0 mm 0.00 in0.0 mm 0.00 in0.0 mm
07:04 PM 54.8°F12.7°C 48.1°F8.9°C 78% 1.4 mph E2.3 kmh E 4.0 mph6.4 kmh 30.00 in1015.9 mb 0.00 in0.0 mm 0.00 in0.0 mm 0.00 in0.0 mm
07:09 PM 54.7°F12.6°C 48.0°F8.9°C 78% 2.5 mph E4.0 kmh E 4.0 mph6.4 kmh 30.00 in1015.9 mb 0.00 in0.0 mm 0.00 in0.0 mm 0.00 in0.0 mm
07:14 PM 54.6°F12.6°C 47.9°F8.8°C 78% 2.2 mph ENE3.5 kmh ENE 4.0 mph6.4 kmh 29.99 in1015.6 mb 0.00 in0.0 mm 0.00 in0.0 mm 0.00 in0.0 mm
07:19 PM 54.6°F12.6°C 48.3°F9.1°C 79% 1.9 mph ENE3.1 kmh ENE 4.0 mph6.4 kmh 29.99 in1015.6 mb 0.00 in0.0 mm 0.00 in0.0 mm 0.00 in0.0 mm
07:24 PM 54.5°F12.5°C 47.8°F8.8°C 78% 2.1 mph ENE3.4 kmh ENE 4.0 mph6.4 kmh 29.99 in1015.6 mb 0.00 in0.0 mm 0.00 in0.0 mm 0.00 in0.0 mm
07:29 PM 54.5°F12.5°C 47.8°F8.8°C 78% 2.5 mph ENE4.0 kmh ENE 6.0 mph9.7 kmh 29.98 in1015.2 mb 0.00 in0.0 mm 0.00 in0.0 mm 0.00 in0.0 mm
07:34 PM 54.5°F12.5°C 47.8°F8.8°C 78% 3.0 mph ENE4.8 kmh ENE 6.0 mph9.7 kmh 29.99 in1015.6 mb 0.00 in0.0 mm 0.00 in0.0 mm 0.00 in0.0 mm
07:39 PM 54.4°F12.4°C 48.1°F8.9°C 79% 2.2 mph E3.5 kmh E 6.0 mph9.7 kmh 29.99 in1015.6 mb 0.00 in0.0 mm 0.00 in0.0 mm 0.00 in0.0 mm
07:44 PM 54.3°F12.4°C 47.9°F8.8°C 79% 2.6 mph E4.2 kmh E 6.0 mph9.7 kmh 29.99 in1015.6 mb 0.00 in0.0 mm 0.00 in0.0 mm 0.00 in0.0 mm
07:49 PM 54.3°F12.4°C 48.0°F8.9°C 79% 1.8 mph E2.9 kmh E 6.0 mph9.7 kmh 30.00 in1015.9 mb 0.00 in0.0 mm 0.00 in0.0 mm 0.00 in0.0 mm
07:54 PM 54.2°F12.3°C 47.9°F8.8°C 79% 1.7 mph E2.7 kmh E 6.0 mph9.7 kmh 30.00 in1015.9 mb 0.00 in0.0 mm 0.00 in0.0 mm 0.00 in0.0 mm
07:59 PM 54.2°F12.3°C 47.8°F8.8°C 79% 2.2 mph E3.5 kmh E 6.0 mph9.7 kmh 30.00 in1015.9 mb 0.00 in0.0 mm 0.00 in0.0 mm 0.00 in0.0 mm
08:04 PM 54.2°F12.3°C 47.9°F8.8°C 79% 3.5 mph E5.6 kmh E 8.0 mph12.9 kmh 29.99 in1015.6 mb 0.00 in0.0 mm 0.00 in0.0 mm 0.00 in0.0 mm
08:09 PM 54.1°F12.3°C 47.8°F8.8°C 79% 3.5 mph E5.6 kmh E 9.0 mph14.5 kmh 29.99 in1015.6 mb 0.00 in0.0 mm 0.00 in0.0 mm 0.00 in0.0 mm
08:14 PM 54.1°F12.3°C 48.1°F8.9°C 80% 4.3 mph ENE6.9 kmh ENE 9.0 mph14.5 kmh 29.98 in1015.2 mb 0.00 in0.0 mm 0.00 in0.0 mm 0.00 in0.0 mm
08:19 PM 54.0°F12.2°C 48.0°F8.9°C 80% 3.9 mph ENE6.3 kmh ENE 10.0 mph16.1 kmh 29.98 in1015.2 mb 0.00 in0.0 mm 0.00 in0.0 mm 0.00 in0.0 mm
08:24 PM 53.8°F12.1°C 47.8°F8.8°C 80% 3.5 mph ENE5.6 kmh ENE 10.0 mph16.1 kmh 29.97 in1014.9 mb 0.00 in0.0 mm 0.00 in0.0 mm 0.00 in0.0 mm
08:29 PM 53.7°F12.1°C 48.0°F8.9°C 81% 3.4 mph ENE5.5 kmh ENE 10.0 mph16.1 kmh 29.97 in1014.9 mb 0.00 in0.0 mm 0.00 in0.0 mm 0.00 in0.0 mm
08:34 PM 53.6°F12.0°C 47.9°F8.8°C 81% 4.8 mph ENE7.7 kmh ENE 10.0 mph16.1 kmh 29.98 in1015.2 mb 0.00 in0.0 mm 0.00 in0.0 mm 0.00 in0.0 mm
08:39 PM 53.6°F12.0°C 47.9°F8.8°C 81% 2.5 mph E4.0 kmh E 9.0 mph14.5 kmh 29.98 in1015.2 mb 0.00 in0.0 mm 0.00 in0.0 mm 0.00 in0.0 mm
08:44 PM 53.5°F11.9°C 48.2°F9.0°C 82% 3.9 mph E6.3 kmh E 9.0 mph14.5 kmh 29.98 in1015.2 mb 0.00 in0.0 mm 0.00 in0.0 mm 0.00 in0.0 mm
08:49 PM 53.5°F11.9°C 48.2°F9.0°C 82% 3.6 mph E5.8 kmh E 10.0 mph16.1 kmh 29.98 in1015.2 mb 0.00 in0.0 mm 0.00 in0.0 mm 0.00 in0.0 mm
08:54 PM 53.4°F11.9°C 48.0°F8.9°C 82% 1.8 mph E2.9 kmh E 10.0 mph16.1 kmh 29.99 in1015.6 mb 0.00 in0.0 mm 0.00 in0.0 mm 0.00 in0.0 mm
08:59 PM 53.3°F11.8°C 48.0°F8.9°C 82% 1.8 mph E2.9 kmh E 10.0 mph16.1 kmh 29.99 in1015.6 mb 0.00 in0.0 mm 0.00 in0.0 mm 0.00 in0.0 mm
09:04 PM 53.3°F11.8°C 48.3°F9.1°C 83% 1.4 mph E2.3 kmh E 10.0 mph16.1 kmh 29.99 in1015.6 mb 0.00 in0.0 mm 0.00 in0.0 mm 0.00 in0.0 mm
09:09 PM 53.3°F11.8°C 48.3°F9.1°C 83% 2.0 mph E3.2 kmh E 6.0 mph9.7 kmh 29.98 in1015.2 mb 0.00 in0.0 mm 0.00 in0.0 mm 0.00 in0.0 mm
09:14 PM 53.3°F11.8°C 48.3°F9.1°C 83% 1.9 mph E3.1 kmh E 5.0 mph8.0 kmh 29.98 in1015.2 mb 0.00 in0.0 mm 0.00 in0.0 mm 0.00 in0.0 mm
09:19 PM 53.2°F11.8°C 48.2°F9.0°C 83% 2.0 mph E3.2 kmh E 6.0 mph9.7 kmh 29.98 in1015.2 mb 0.00 in0.0 mm 0.00 in0.0 mm 0.00 in0.0 mm
09:24 PM 53.2°F11.8°C 48.2°F9.0°C 83% 1.6 mph E2.6 kmh E 6.0 mph9.7 kmh 29.99 in1015.6 mb 0.00 in0.0 mm 0.00 in0.0 mm 0.00 in0.0 mm
09:29 PM 53.1°F11.7°C 48.4°F9.1°C 84% 3.1 mph E5.0 kmh E 6.0 mph9.7 kmh 29.98 in1015.2 mb 0.00 in0.0 mm 0.00 in0.0 mm 0.00 in0.0 mm
09:34 PM 53.1°F11.7°C 48.4°F9.1°C 84% 3.6 mph E5.8 kmh E 7.0 mph11.3 kmh 29.98 in1015.2 mb 0.00 in0.0 mm 0.00 in0.0 mm 0.00 in0.0 mm
09:39 PM 53.0°F11.7°C 48.3°F9.1°C 84% 3.0 mph E4.8 kmh E 7.0 mph11.3 kmh 29.98 in1015.2 mb 0.00 in0.0 mm 0.00 in0.0 mm 0.00 in0.0 mm
09:44 PM 53.0°F11.7°C 48.3°F9.1°C 84% 1.7 mph E2.7 kmh E 7.0 mph11.3 kmh 29.98 in1015.2 mb 0.00 in0.0 mm 0.00 in0.0 mm 0.00 in0.0 mm
09:48 PM 52.9°F11.6°C 48.5°F9.2°C 85% 3.0 mph E4.8 kmh E 7.0 mph11.3 kmh 29.97 in1014.9 mb 0.00 in0.0 mm 0.00 in0.0 mm 0.00 in0.0 mm
09:53 PM 52.8°F11.6°C 48.4°F9.1°C 85% 3.5 mph E5.6 kmh E 8.0 mph12.9 kmh 29.97 in1014.9 mb 0.00 in0.0 mm 0.00 in0.0 mm 0.00 in0.0 mm
09:58 PM 52.7°F11.5°C 48.3°F9.1°C 85% 2.8 mph E4.5 kmh E 8.0 mph12.9 kmh 29.97 in1014.9 mb 0.00 in0.0 mm 0.00 in0.0 mm 0.00 in0.0 mm
10:03 PM 52.6°F11.4°C 48.2°F9.0°C 85% 2.1 mph E3.4 kmh E 8.0 mph12.9 kmh 29.97 in1014.9 mb 0.00 in0.0 mm 0.00 in0.0 mm 0.00 in0.0 mm
10:08 PM 52.5°F11.4°C 48.4°F9.1°C 86% 2.1 mph E3.4 kmh E 8.0 mph12.9 kmh 29.97 in1014.9 mb 0.00 in0.0 mm 0.00 in0.0 mm 0.00 in0.0 mm
10:13 PM 52.4°F11.3°C 48.3°F9.1°C 86% 2.2 mph E3.5 kmh E 7.0 mph11.3 kmh 29.97 in1014.9 mb 0.00 in0.0 mm 0.00 in0.0 mm 0.00 in0.0 mm
10:18 PM 52.3°F11.3°C 48.2°F9.0°C 86% 2.7 mph ENE4.3 kmh ENE 6.0 mph9.7 kmh 29.97 in1014.9 mb 0.00 in0.0 mm 0.00 in0.0 mm 0.00 in0.0 mm
10:23 PM 52.2°F11.2°C 48.1°F8.9°C 86% 1.6 mph ENE2.6 kmh ENE 6.0 mph9.7 kmh 29.96 in1014.6 mb 0.00 in0.0 mm 0.00 in0.0 mm 0.00 in0.0 mm
10:28 PM 52.2°F11.2°C 48.1°F8.9°C 86% 1.7 mph ENE2.7 kmh ENE 6.0 mph9.7 kmh 29.97 in1014.9 mb 0.00 in0.0 mm 0.00 in0.0 mm 0.00 in0.0 mm
10:33 PM 52.1°F11.2°C 48.0°F8.9°C 86% 3.3 mph ENE5.3 kmh ENE 6.0 mph9.7 kmh 29.97 in1014.9 mb 0.00 in0.0 mm 0.00 in0.0 mm 0.00 in0.0 mm
10:38 PM 52.1°F11.2°C 48.0°F8.9°C 86% 2.3 mph ENE3.7 kmh ENE 5.0 mph8.0 kmh 29.97 in1014.9 mb 0.00 in0.0 mm 0.00 in0.0 mm 0.00 in0.0 mm
10:43 PM 52.1°F11.2°C 48.0°F8.9°C 86% 2.2 mph ENE3.5 kmh ENE 6.0 mph9.7 kmh 29.96 in1014.6 mb 0.00 in0.0 mm 0.00 in0.0 mm 0.00 in0.0 mm
10:48 PM 52.1°F11.2°C 48.0°F8.9°C 86% 3.4 mph E5.5 kmh E 7.0 mph11.3 kmh 29.96 in1014.6 mb 0.00 in0.0 mm 0.00 in0.0 mm 0.00 in0.0 mm
10:53 PM 52.1°F11.2°C 48.0°F8.9°C 86% 4.8 mph E7.7 kmh E 8.0 mph12.9 kmh 29.97 in1014.9 mb 0.00 in0.0 mm 0.00 in0.0 mm 0.00 in0.0 mm
10:58 PM 52.0°F11.1°C 47.9°F8.8°C 86% 5.6 mph E9.0 kmh E 8.0 mph12.9 kmh 29.97 in1014.9 mb 0.00 in0.0 mm 0.00 in0.0 mm 0.00 in0.0 mm
11:03 PM 52.0°F11.1°C 48.2°F9.0°C 87% 3.0 mph ENE4.8 kmh ENE 8.0 mph12.9 kmh 29.97 in1014.9 mb 0.00 in0.0 mm 0.00 in0.0 mm 0.00 in0.0 mm
11:08 PM 52.0°F11.1°C 48.2°F9.0°C 87% 5.0 mph E8.0 kmh E 11.0 mph17.7 kmh 29.97 in1014.9 mb 0.00 in0.0 mm 0.00 in0.0 mm 0.00 in0.0 mm
11:13 PM 52.0°F11.1°C 48.2°F9.0°C 87% 3.6 mph E5.8 kmh E 11.0 mph17.7 kmh 29.97 in1014.9 mb 0.00 in0.0 mm 0.00 in0.0 mm 0.00 in0.0 mm
11:18 PM 51.9°F11.1°C 48.1°F8.9°C 87% 5.0 mph E8.0 kmh E 11.0 mph17.7 kmh 29.96 in1014.6 mb 0.00 in0.0 mm 0.00 in0.0 mm 0.00 in0.0 mm
11:23 PM 51.9°F11.1°C 48.1°F8.9°C 87% 3.5 mph E5.6 kmh E 11.0 mph17.7 kmh 29.96 in1014.6 mb 0.00 in0.0 mm 0.00 in0.0 mm 0.00 in0.0 mm
11:28 PM 51.8°F11.0°C 48.0°F8.9°C 87% 5.3 mph E8.5 kmh E 10.0 mph16.1 kmh 29.96 in1014.6 mb 0.00 in0.0 mm 0.00 in0.0 mm 0.00 in0.0 mm
11:33 PM 51.8°F11.0°C 48.0°F8.9°C 87% 2.2 mph ENE3.5 kmh ENE 10.0 mph16.1 kmh 29.96 in1014.6 mb 0.00 in0.0 mm 0.00 in0.0 mm 0.00 in0.0 mm
11:38 PM 51.7°F10.9°C 48.2°F9.0°C 88% 2.1 mph ENE3.4 kmh ENE 9.0 mph14.5 kmh 29.96 in1014.6 mb 0.00 in0.0 mm 0.00 in0.0 mm 0.00 in0.0 mm
11:43 PM 51.7°F10.9°C 48.2°F9.0°C 88% 1.8 mph E2.9 kmh E 9.0 mph14.5 kmh 29.96 in1014.6 mb 0.00 in0.0 mm 0.00 in0.0 mm 0.00 in0.0 mm
11:48 PM 51.6°F10.9°C 48.1°F8.9°C 88% 3.5 mph ENE5.6 kmh ENE 9.0 mph14.5 kmh 29.96 in1014.6 mb 0.00 in0.0 mm 0.00 in0.0 mm 0.00 in0.0 mm
11:53 PM 51.6°F10.9°C 48.1°F8.9°C 88% 2.2 mph ENE3.5 kmh ENE 7.0 mph11.3 kmh 29.96 in1014.6 mb 0.00 in0.0 mm 0.00 in0.0 mm 0.00 in0.0 mm
11:58 PM 51.5°F10.8°C 48.0°F8.9°C 88% 2.0 mph ENE3.2 kmh ENE 7.0 mph11.3 kmh 29.96 in1014.6 mb 0.00 in0.0 mm 0.00 in0.0 mm 0.00 in0.0 mm